sensor_id;sensor_type;location;lat;lon;timestamp;pressure;altitude;pressure_sealevel;temperature;humidity
23427;BME280;41148;45.420;10.952;2024-02-21T00:02:26;101723.59;;;9.41;92.09
23427;BME280;41148;45.420;10.952;2024-02-21T00:04:53;101723.69;;;9.29;92.58
23427;BME280;41148;45.420;10.952;2024-02-21T00:07:21;101719.31;;;9.21;92.28
23427;BME280;41148;45.420;10.952;2024-02-21T00:09:48;101728.19;;;9.16;92.15
23427;BME280;41148;45.420;10.952;2024-02-21T00:12:16;101724.66;;;9.13;91.70
23427;BME280;41148;45.420;10.952;2024-02-21T00:14:43;101720.31;;;9.00;92.06
23427;BME280;41148;45.420;10.952;2024-02-21T00:17:10;101721.16;;;9.05;91.92
23427;BME280;41148;45.420;10.952;2024-02-21T00:19:37;101730.06;;;9.01;92.35
23427;BME280;41148;45.420;10.952;2024-02-21T00:22:05;101727.41;;;9.01;92.32
23427;BME280;41148;45.420;10.952;2024-02-21T00:24:32;101724.72;;;9.02;91.82
23427;BME280;41148;45.420;10.952;2024-02-21T00:26:59;101724.75;;;8.98;91.07
23427;BME280;41148;45.420;10.952;2024-02-21T00:29:26;101726.53;;;8.99;90.90
23427;BME280;41148;45.420;10.952;2024-02-21T00:31:54;101731.81;;;9.03;89.93
23427;BME280;41148;45.420;10.952;2024-02-21T00:34:21;101736.28;;;8.92;89.97
23427;BME280;41148;45.420;10.952;2024-02-21T00:36:49;101727.41;;;8.93;89.51
23427;BME280;41148;45.420;10.952;2024-02-21T00:39:17;101730.97;;;8.87;89.28
23427;BME280;41148;45.420;10.952;2024-02-21T00:41:44;101724.84;;;8.79;89.87
23427;BME280;41148;45.420;10.952;2024-02-21T00:44:11;101723.94;;;8.80;89.59
23427;BME280;41148;45.420;10.952;2024-02-21T00:48:16;101715.09;;;8.74;88.78
23427;BME280;41148;45.420;10.952;2024-02-21T00:50:43;101711.53;;;8.76;88.62
23427;BME280;41148;45.420;10.952;2024-02-21T00:53:10;101710.66;;;8.76;85.97
23427;BME280;41148;45.420;10.952;2024-02-21T00:55:38;101715.19;;;8.60;83.55
23427;BME280;41148;45.420;10.952;2024-02-21T00:58:05;101704.50;;;8.66;83.58
23427;BME280;41148;45.420;10.952;2024-02-21T01:00:32;101699.19;;;8.68;82.74
23427;BME280;41148;45.420;10.952;2024-02-21T01:03:00;101708.97;;;8.63;82.74
23427;BME280;41148;45.420;10.952;2024-02-21T01:05:28;101711.59;;;8.70;82.62
23427;BME280;41148;45.420;10.952;2024-02-21T01:07:56;101712.44;;;8.74;82.51
23427;BME280;41148;45.420;10.952;2024-02-21T01:10:23;101702.72;;;8.67;82.47
23427;BME280;41148;45.420;10.952;2024-02-21T01:12:50;101708.88;;;8.84;82.38
23427;BME280;41148;45.420;10.952;2024-02-21T01:15:18;101703.50;;;8.98;82.14
23427;BME280;41148;45.420;10.952;2024-02-21T01:17:45;101707.94;;;8.94;81.81
23427;BME280;41148;45.420;10.952;2024-02-21T01:20:13;101708.00;;;8.82;82.88
23427;BME280;41148;45.420;10.952;2024-02-21T01:22:40;101701.84;;;8.65;83.56
23427;BME280;41148;45.420;10.952;2024-02-21T01:25:07;101697.41;;;8.74;83.44
23427;BME280;41148;45.420;10.952;2024-02-21T01:27:35;101688.56;;;8.68;83.38
23427;BME280;41148;45.420;10.952;2024-02-21T01:30:02;101700.03;;;8.77;83.62
23427;BME280;41148;45.420;10.952;2024-02-21T01:32:29;101700.91;;;8.78;83.27
23427;BME280;41148;45.420;10.952;2024-02-21T01:34:57;101700.91;;;8.81;83.35
23427;BME280;41148;45.420;10.952;2024-02-21T01:37:24;101701.75;;;8.91;81.55
23427;BME280;41148;45.420;10.952;2024-02-21T01:39:52;101698.19;;;8.93;80.40
23427;BME280;41148;45.420;10.952;2024-02-21T01:42:20;101692.91;;;8.88;80.71
23427;BME280;41148;45.420;10.952;2024-02-21T01:44:47;101697.34;;;8.88;79.62
23427;BME280;41148;45.420;10.952;2024-02-21T01:47:14;101708.03;;;8.73;79.53
23427;BME280;41148;45.420;10.952;2024-02-21T01:49:41;101701.94;;;8.51;80.63
23427;BME280;41148;45.420;10.952;2024-02-21T01:52:10;101711.69;;;8.43;80.33
23427;BME280;41148;45.420;10.952;2024-02-21T01:54:38;101705.41;;;8.65;79.38
23427;BME280;41148;45.420;10.952;2024-02-21T01:57:05;101705.41;;;8.65;79.45
23427;BME280;41148;45.420;10.952;2024-02-21T01:59:33;101706.31;;;8.55;79.35
23427;BME280;41148;45.420;10.952;2024-02-21T02:02:02;101702.81;;;8.39;79.33
23427;BME280;41148;45.420;10.952;2024-02-21T02:04:30;101701.97;;;8.20;78.75
23427;BME280;41148;45.420;10.952;2024-02-21T02:06:57;101699.28;;;8.29;78.86
23427;BME280;41148;45.420;10.952;2024-02-21T02:09:27;101706.38;;;8.38;78.66
23427;BME280;41148;45.420;10.952;2024-02-21T02:11:54;101702.81;;;8.44;78.03
23427;BME280;41148;45.420;10.952;2024-02-21T02:14:21;101691.31;;;8.51;78.07
23427;BME280;41148;45.420;10.952;2024-02-21T02:16:49;101686.00;;;8.51;78.32
23427;BME280;41148;45.420;10.952;2024-02-21T02:19:16;101689.50;;;8.56;77.97
23427;BME280;41148;45.420;10.952;2024-02-21T02:21:49;101689.50;;;8.59;77.55
23427;BME280;41148;45.420;10.952;2024-02-21T02:24:23;101690.38;;;8.56;76.90
23427;BME280;41148;45.420;10.952;2024-02-21T02:26:51;101691.28;;;8.55;77.62
23427;BME280;41148;45.420;10.952;2024-02-21T02:29:18;101686.84;;;8.54;75.21
23427;BME280;41148;45.420;10.952;2024-02-21T02:31:46;101686.91;;;8.41;74.37
23427;BME280;41148;45.420;10.952;2024-02-21T02:34:14;101683.34;;;8.45;75.45
23427;BME280;41148;45.420;10.952;2024-02-21T02:36:41;101674.50;;;8.43;74.99
23427;BME280;41148;45.420;10.952;2024-02-21T02:39:08;101675.41;;;8.42;74.00
23427;BME280;41148;45.420;10.952;2024-02-21T02:41:36;101673.59;;;8.47;73.67
23427;BME280;41148;45.420;10.952;2024-02-21T02:44:03;101676.25;;;8.39;74.13
23427;BME280;41148;45.420;10.952;2024-02-21T02:46:31;101670.09;;;8.31;74.83
23427;BME280;41148;45.420;10.952;2024-02-21T02:48:58;101670.97;;;8.25;75.42
23427;BME280;41148;45.420;10.952;2024-02-21T02:51:25;101677.19;;;8.18;75.86
23427;BME280;41148;45.420;10.952;2024-02-21T02:53:53;101668.34;;;8.15;76.67
23427;BME280;41148;45.420;10.952;2024-02-21T02:56:20;101666.56;;;8.35;76.73
23427;BME280;41148;45.420;10.952;2024-02-21T02:58:47;101668.31;;;8.31;76.54
23427;BME280;41148;45.420;10.952;2024-02-21T03:01:15;101663.91;;;8.20;76.37
23427;BME280;41148;45.420;10.952;2024-02-21T03:03:42;101671.00;;;8.22;76.83
23427;BME280;41148;45.420;10.952;2024-02-21T03:06:09;101670.09;;;8.31;77.22
23427;BME280;41148;45.420;10.952;2024-02-21T03:08:37;101665.69;;;8.35;76.64
23427;BME280;41148;45.420;10.952;2024-02-21T03:11:04;101672.75;;;8.40;76.10
23427;BME280;41148;45.420;10.952;2024-02-21T03:13:31;101670.03;;;8.48;76.26
23427;BME280;41148;45.420;10.952;2024-02-21T03:15:59;101670.06;;;8.43;76.18
23427;BME280;41148;45.420;10.952;2024-02-21T03:18:26;101674.53;;;8.40;75.79
23427;BME280;41148;45.420;10.952;2024-02-21T03:20:53;101677.16;;;8.33;75.72
23427;BME280;41148;45.420;10.952;2024-02-21T03:23:21;101674.53;;;8.24;76.98
23427;BME280;41148;45.420;10.952;2024-02-21T03:25:48;101688.66;;;8.28;77.04
23427;BME280;41148;45.420;10.952;2024-02-21T03:28:15;101686.91;;;8.27;76.79
23427;BME280;41148;45.420;10.952;2024-02-21T03:30:43;101696.63;;;8.32;76.62
23427;BME280;41148;45.420;10.952;2024-02-21T03:33:10;101691.34;;;8.36;76.38
23427;BME280;41148;45.420;10.952;2024-02-21T03:35:37;101685.16;;;8.40;76.87
23427;BME280;41148;45.420;10.952;2024-02-21T03:38:05;101686.03;;;8.16;77.69
23427;BME280;41148;45.420;10.952;2024-02-21T03:40:32;101689.59;;;8.12;78.30
23427;BME280;41148;45.420;10.952;2024-02-21T03:42:59;101690.47;;;8.17;77.94
23427;BME280;41148;45.420;10.952;2024-02-21T03:45:26;101693.13;;;8.09;78.37
23427;BME280;41148;45.420;10.952;2024-02-21T03:47:54;101693.16;;;8.01;78.79
23427;BME280;41148;45.420;10.952;2024-02-21T03:50:21;101697.53;;;8.19;78.41
23427;BME280;41148;45.420;10.952;2024-02-21T03:52:49;101693.97;;;8.29;78.57
23427;BME280;41148;45.420;10.952;2024-02-21T03:55:16;101691.34;;;8.40;77.98
23427;BME280;41148;45.420;10.952;2024-02-21T03:57:43;101682.44;;;8.47;77.75
23427;BME280;41148;45.420;10.952;2024-02-21T04:00:11;101677.13;;;8.52;77.50
23427;BME280;41148;45.420;10.952;2024-02-21T04:02:38;101683.31;;;8.52;78.65
23427;BME280;41148;45.420;10.952;2024-02-21T04:05:06;101671.81;;;8.49;78.49
23427;BME280;41148;45.420;10.952;2024-02-21T04:07:38;101671.88;;;8.35;78.45
23427;BME280;41148;45.420;10.952;2024-02-21T04:10:06;101671.91;;;8.12;78.98
23427;BME280;41148;45.420;10.952;2024-02-21T04:12:33;101680.75;;;8.07;79.41
23427;BME280;41148;45.420;10.952;2024-02-21T04:15:01;101685.13;;;8.20;79.21
23427;BME280;41148;45.420;10.952;2024-02-21T04:17:28;101686.00;;;8.26;80.48
23427;BME280;41148;45.420;10.952;2024-02-21T04:20:01;101684.25;;;8.27;80.04
23427;BME280;41148;45.420;10.952;2024-02-21T04:22:29;101690.47;;;8.21;79.21
23427;BME280;41148;45.420;10.952;2024-02-21T04:24:56;101696.69;;;8.05;77.47
23427;BME280;41148;45.420;10.952;2024-02-21T04:27:24;101677.22;;;7.89;76.58
23427;BME280;41148;45.420;10.952;2024-02-21T04:29:51;101679.03;;;7.86;75.21
23427;BME280;41148;45.420;10.952;2024-02-21T04:32:18;101692.28;;;7.83;74.64
23427;BME280;41148;45.420;10.952;2024-02-21T04:34:46;101693.16;;;7.88;74.74
23427;BME280;41148;45.420;10.952;2024-02-21T04:37:13;101689.63;;;8.02;74.19
23427;BME280;41148;45.420;10.952;2024-02-21T04:39:41;101680.75;;;8.07;74.25
23427;BME280;41148;45.420;10.952;2024-02-21T04:42:08;101686.06;;;8.03;72.38
23427;BME280;41148;45.420;10.952;2024-02-21T04:44:35;101686.94;;;8.10;72.44
23427;BME280;41148;45.420;10.952;2024-02-21T04:47:03;101695.78;;;8.08;71.38
23427;BME280;41148;45.420;10.952;2024-02-21T04:49:30;101692.25;;;8.16;71.86
23427;BME280;41148;45.420;10.952;2024-02-21T04:51:58;101686.06;;;8.14;72.24
23427;BME280;41148;45.420;10.952;2024-02-21T04:54:25;101686.03;;;8.19;71.76
23427;BME280;41148;45.420;10.952;2024-02-21T04:56:52;101692.28;;;7.95;70.30
23427;BME280;41148;45.420;10.952;2024-02-21T04:59:20;101694.94;;;7.84;69.58
23427;BME280;41148;45.420;10.952;2024-02-21T05:01:47;101701.16;;;7.82;68.18
23427;BME280;41148;45.420;10.952;2024-02-21T05:04:14;101703.75;;;7.89;67.18
23427;BME280;41148;45.420;10.952;2024-02-21T05:06:42;101704.69;;;7.82;66.74
23427;BME280;41148;45.420;10.952;2024-02-21T05:09:09;101708.22;;;7.93;67.78
23427;BME280;41148;45.420;10.952;2024-02-21T05:11:37;101710.84;;;7.99;65.64
23427;BME280;41148;45.420;10.952;2024-02-21T05:14:05;101709.09;;;7.92;66.25
23427;BME280;41148;45.420;10.952;2024-02-21T05:16:32;101709.09;;;7.86;67.83
23427;BME280;41148;45.420;10.952;2024-02-21T05:18:59;101701.16;;;7.82;68.72
23427;BME280;41148;45.420;10.952;2024-02-21T05:21:27;101697.59;;;7.78;69.26
23427;BME280;41148;45.420;10.952;2024-02-21T05:23:55;101691.38;;;7.88;68.99
23427;BME280;41148;45.420;10.952;2024-02-21T05:26:23;101679.00;;;8.04;68.62
23427;BME280;41148;45.420;10.952;2024-02-21T05:28:51;101682.53;;;8.12;68.58
23427;BME280;41148;45.420;10.952;2024-02-21T05:31:18;101677.25;;;8.01;68.14
23427;BME280;41148;45.420;10.952;2024-02-21T05:33:46;101684.31;;;7.96;68.57
23427;BME280;41148;45.420;10.952;2024-02-21T05:36:14;101693.16;;;7.88;69.60
23427;BME280;41148;45.420;10.952;2024-02-21T05:38:41;101689.63;;;7.92;70.30
23427;BME280;41148;45.420;10.952;2024-02-21T05:41:08;101694.91;;;7.90;69.82
23427;BME280;41148;45.420;10.952;2024-02-21T05:43:38;101686.97;;;7.86;68.65
23427;BME280;41148;45.420;10.952;2024-02-21T05:46:06;101698.44;;;7.98;68.57
23427;BME280;41148;45.420;10.952;2024-02-21T05:48:33;101697.53;;;8.10;69.49
23427;BME280;41148;45.420;10.952;2024-02-21T05:51:05;101697.56;;;8.06;71.32
23427;BME280;41148;45.420;10.952;2024-02-21T05:53:32;101688.72;;;8.05;71.25
23427;BME280;41148;45.420;10.952;2024-02-21T05:56:00;101693.13;;;8.09;70.83
23427;BME280;41148;45.420;10.952;2024-02-21T05:58:28;101685.19;;;8.01;69.90
23427;BME280;41148;45.420;10.952;2024-02-21T06:00:56;101682.53;;;8.03;69.39
23427;BME280;41148;45.420;10.952;2024-02-21T06:03:23;101684.28;;;8.10;69.35
23427;BME280;41148;45.420;10.952;2024-02-21T06:05:51;101687.84;;;8.12;69.80
23427;BME280;41148;45.420;10.952;2024-02-21T06:08:18;101694.91;;;8.12;71.78
23427;BME280;41148;45.420;10.952;2024-02-21T06:10:46;101686.97;;;7.92;69.73
23427;BME280;41148;45.420;10.952;2024-02-21T06:13:14;101689.63;;;7.90;68.76
23427;BME280;41148;45.420;10.952;2024-02-21T06:15:42;101679.91;;;7.92;68.76
23427;BME280;41148;45.420;10.952;2024-02-21T06:18:09;101681.66;;;7.90;68.65
23427;BME280;41148;45.420;10.952;2024-02-21T06:20:36;101688.72;;;7.96;67.68
23427;BME280;41148;45.420;10.952;2024-02-21T06:23:06;101699.31;;;8.00;66.93
23427;BME280;41148;45.420;10.952;2024-02-21T06:25:33;101702.88;;;7.99;67.53
23427;BME280;41148;45.420;10.952;2024-02-21T06:28:01;101709.94;;;8.10;67.26
23427;BME280;41148;45.420;10.952;2024-02-21T06:30:28;101719.69;;;8.11;69.17
23427;BME280;41148;45.420;10.952;2024-02-21T06:32:55;101714.38;;;8.15;67.27
23427;BME280;41148;45.420;10.952;2024-02-21T06:35:23;101723.19;;;8.17;67.13
23427;BME280;41148;45.420;10.952;2024-02-21T06:37:53;101718.75;;;8.25;66.20
23427;BME280;41148;45.420;10.952;2024-02-21T06:40:21;101717.88;;;8.23;66.54
23427;BME280;41148;45.420;10.952;2024-02-21T06:42:49;101712.56;;;8.31;65.37
23427;BME280;41148;45.420;10.952;2024-02-21T06:45:17;101717.00;;;8.26;64.78
23427;BME280;41148;45.420;10.952;2024-02-21T06:47:44;101723.19;;;8.31;65.35
23427;BME280;41148;45.420;10.952;2024-02-21T06:50:11;101722.28;;;8.33;65.04
23427;BME280;41148;45.420;10.952;2024-02-21T06:52:39;101738.22;;;8.38;64.22
23427;BME280;41148;45.420;10.952;2024-02-21T06:55:06;101743.53;;;8.44;64.82
23427;BME280;41148;45.420;10.952;2024-02-21T06:57:33;101740.00;;;8.39;65.10
23427;BME280;41148;45.420;10.952;2024-02-21T07:00:01;101729.38;;;8.44;63.96
23427;BME280;41148;45.420;10.952;2024-02-21T07:02:28;101744.41;;;8.48;63.58
23427;BME280;41148;45.420;10.952;2024-02-21T07:04:55;101735.59;;;8.41;64.57
23427;BME280;41148;45.420;10.952;2024-02-21T07:07:23;101732.00;;;8.48;65.15
23427;BME280;41148;45.420;10.952;2024-02-21T07:09:50;101728.44;;;8.62;65.52
23427;BME280;41148;45.420;10.952;2024-02-21T07:12:18;101732.81;;;8.81;65.29
23427;BME280;41148;45.420;10.952;2024-02-21T07:14:46;101736.25;;;8.97;65.06
23427;BME280;41148;45.420;10.952;2024-02-21T07:17:13;101731.81;;;9.03;64.38
23427;BME280;41148;45.420;10.952;2024-02-21T07:19:40;101740.72;;;8.93;65.39
23427;BME280;41148;45.420;10.952;2024-02-21T07:22:08;101746.00;;;9.02;63.07
23427;BME280;41148;45.420;10.952;2024-02-21T07:24:36;101745.06;;;9.06;61.89
23427;BME280;41148;45.420;10.952;2024-02-21T07:27:04;101742.44;;;9.03;62.33
23427;BME280;41148;45.420;10.952;2024-02-21T07:29:32;101733.53;;;9.12;62.22
23427;BME280;41148;45.420;10.952;2024-02-21T07:31:59;101733.47;;;9.23;61.16
23427;BME280;41148;45.420;10.952;2024-02-21T07:34:26;101743.13;;;9.40;61.12
23427;BME280;41148;45.420;10.952;2024-02-21T07:36:54;101744.94;;;9.31;59.68
23427;BME280;41148;45.420;10.952;2024-02-21T07:39:21;101743.13;;;9.34;60.76
23427;BME280;41148;45.420;10.952;2024-02-21T07:41:48;101746.56;;;9.53;62.48
23427;BME280;41148;45.420;10.952;2024-02-21T07:44:16;101743.88;;;9.61;60.39
23427;BME280;41148;45.420;10.952;2024-02-21T07:46:43;101759.75;;;9.70;59.63
23427;BME280;41148;45.420;10.952;2024-02-21T07:49:11;101758.84;;;9.77;60.40
23427;BME280;41148;45.420;10.952;2024-02-21T07:51:38;101757.88;;;9.86;59.83
23427;BME280;41148;45.420;10.952;2024-02-21T07:54:05;101764.88;;;9.97;59.76
23427;BME280;41148;45.420;10.952;2024-02-21T07:56:34;101755.81;;;10.17;59.67
23427;BME280;41148;45.420;10.952;2024-02-21T07:59:01;101761.13;;;10.18;59.02
23427;BME280;41148;45.420;10.952;2024-02-21T08:01:29;101767.28;;;10.28;59.32
23427;BME280;41148;45.420;10.952;2024-02-21T08:03:56;101766.44;;;10.26;59.44
23427;BME280;41148;45.420;10.952;2024-02-21T08:06:24;101760.22;;;10.22;59.91
23427;BME280;41148;45.420;10.952;2024-02-21T08:08:51;101768.03;;;10.41;60.35
23427;BME280;41148;45.420;10.952;2024-02-21T08:11:18;101770.63;;;10.50;59.86
23427;BME280;41148;45.420;10.952;2024-02-21T08:13:46;101765.34;;;11.19;58.31
23427;BME280;41148;45.420;10.952;2024-02-21T08:16:13;101775.09;;;12.37;55.29
23427;BME280;41148;45.420;10.952;2024-02-21T08:18:40;101780.63;;;13.19;53.28
23427;BME280;41148;45.420;10.952;2024-02-21T08:21:11;101781.09;;;13.77;51.70
23427;BME280;41148;45.420;10.952;2024-02-21T08:23:38;101775.94;;;14.40;49.30
23427;BME280;41148;45.420;10.952;2024-02-21T08:26:05;101781.06;;;15.13;47.66
23427;BME280;41148;45.420;10.952;2024-02-21T08:28:33;101778.06;;;15.24;46.96
23427;BME280;41148;45.420;10.952;2024-02-21T08:31:00;101772.72;;;15.52;46.23
23427;BME280;41148;45.420;10.952;2024-02-21T08:33:28;101774.91;;;15.96;45.25
23427;BME280;41148;45.420;10.952;2024-02-21T08:35:57;101772.59;;;15.86;45.65
23427;BME280;41148;45.420;10.952;2024-02-21T08:38:24;101769.59;;;15.95;45.92
23427;BME280;41148;45.420;10.952;2024-02-21T08:40:52;101761.38;;;15.71;45.44
23427;BME280;41148;45.420;10.952;2024-02-21T08:43:19;101762.53;;;15.92;45.57
23427;BME280;41148;45.420;10.952;2024-02-21T08:45:46;101759.50;;;16.28;44.83
23427;BME280;41148;45.420;10.952;2024-02-21T08:48:14;101754.63;;;16.39;44.18
23427;BME280;41148;45.420;10.952;2024-02-21T08:50:41;101757.63;;;16.30;43.93
23427;BME280;41148;45.420;10.952;2024-02-21T08:53:08;101756.91;;;16.50;43.69
23427;BME280;41148;45.420;10.952;2024-02-21T08:55:36;101750.06;;;17.14;42.24
23427;BME280;41148;45.420;10.952;2024-02-21T08:58:03;101759.47;;;17.26;41.71
23427;BME280;41148;45.420;10.952;2024-02-21T09:00:31;101764.72;;;17.53;41.62
23427;BME280;41148;45.420;10.952;2024-02-21T09:02:59;101756.38;;;17.82;41.53
23427;BME280;41148;45.420;10.952;2024-02-21T09:05:26;101752.94;;;17.55;41.48
23427;BME280;41148;45.420;10.952;2024-02-21T09:07:54;101751.75;;;17.86;41.22
23427;BME280;41148;45.420;10.952;2024-02-21T09:10:21;101746.41;;;18.06;40.40
23427;BME280;41148;45.420;10.952;2024-02-21T09:12:49;101738.81;;;17.94;40.69
23427;BME280;41148;45.420;10.952;2024-02-21T09:15:16;101746.84;;;17.73;40.94
23427;BME280;41148;45.420;10.952;2024-02-21T09:17:44;101743.13;;;17.54;41.05
23427;BME280;41148;45.420;10.952;2024-02-21T09:20:11;101745.63;;;16.90;42.00
23427;BME280;41148;45.420;10.952;2024-02-21T09:22:39;101738.34;;;16.17;43.45
23427;BME280;41148;45.420;10.952;2024-02-21T09:25:07;101743.72;;;15.91;44.67
23427;BME280;41148;45.420;10.952;2024-02-21T09:27:35;101748.13;;;15.67;45.13
23427;BME280;41148;45.420;10.952;2024-02-21T09:30:02;101747.53;;;14.98;46.73
23427;BME280;41148;45.420;10.952;2024-02-21T09:32:32;101744.88;;;14.66;48.19
23427;BME280;41148;45.420;10.952;2024-02-21T09:35:02;101747.19;;;14.79;48.03
23427;BME280;41148;45.420;10.952;2024-02-21T09:37:30;101743.06;;;14.68;48.43
23427;BME280;41148;45.420;10.952;2024-02-21T09:39:57;101743.88;;;14.70;49.24
23427;BME280;41148;45.420;10.952;2024-02-21T09:42:29;101744.97;;;14.63;48.63
23427;BME280;41148;45.420;10.952;2024-02-21T09:45:02;101736.19;;;14.56;49.98
23427;BME280;41148;45.420;10.952;2024-02-21T09:47:50;101740.00;;;14.49;50.59
23427;BME280;41148;45.420;10.952;2024-02-21T09:50:22;101743.69;;;14.43;50.67
23427;BME280;41148;45.420;10.952;2024-02-21T09:52:50;101746.34;;;14.45;50.89
23427;BME280;41148;45.420;10.952;2024-02-21T09:55:18;101739.53;;;14.31;51.04
23427;BME280;41148;45.420;10.952;2024-02-21T09:57:46;101739.06;;;14.50;51.12
23427;BME280;41148;45.420;10.952;2024-02-21T10:00:37;101729.13;;;14.53;51.37
23427;BME280;41148;45.420;10.952;2024-02-21T10:03:05;101733.16;;;14.36;51.68
23427;BME280;41148;45.420;10.952;2024-02-21T10:05:35;101723.94;;;14.13;50.97
23427;BME280;41148;45.420;10.952;2024-02-21T10:08:03;101725.06;;;14.04;51.39
23427;BME280;41148;45.420;10.952;2024-02-21T10:10:42;101728.00;;;14.28;51.62
23427;BME280;41148;45.420;10.952;2024-02-21T10:13:09;101727.50;;;14.48;51.97
23427;BME280;41148;45.420;10.952;2024-02-21T10:15:37;101723.25;;;14.39;51.48
23427;BME280;41148;45.420;10.952;2024-02-21T10:18:04;101717.66;;;14.48;51.55
23427;BME280;41148;45.420;10.952;2024-02-21T10:20:33;101726.81;;;14.40;52.22
23427;BME280;41148;45.420;10.952;2024-02-21T10:23:04;101726.09;;;14.33;52.87
23427;BME280;41148;45.420;10.952;2024-02-21T10:25:36;101721.59;;;14.33;53.50
23427;BME280;41148;45.420;10.952;2024-02-21T10:28:11;101726.59;;;14.47;53.85
23427;BME280;41148;45.420;10.952;2024-02-21T10:30:38;101723.19;;;14.41;54.39
23427;BME280;41148;45.420;10.952;2024-02-21T10:33:16;101734.19;;;14.64;54.48
23427;BME280;41148;45.420;10.952;2024-02-21T10:35:43;101728.09;;;14.59;53.97
23427;BME280;41148;45.420;10.952;2024-02-21T10:38:11;101723.56;;;14.61;54.22
23427;BME280;41148;45.420;10.952;2024-02-21T10:40:38;101727.28;;;14.55;55.27
23427;BME280;41148;45.420;10.952;2024-02-21T10:43:05;101724.22;;;14.69;55.51
23427;BME280;41148;45.420;10.952;2024-02-21T10:45:38;101720.66;;;14.69;55.35
23427;BME280;41148;45.420;10.952;2024-02-21T10:48:13;101715.91;;;14.78;55.73
23427;BME280;41148;45.420;10.952;2024-02-21T10:50:50;101717.56;;;14.82;55.71
23427;BME280;41148;45.420;10.952;2024-02-21T10:56:02;101717.06;;;14.70;56.04
23427;BME280;41148;45.420;10.952;2024-02-21T10:58:34;101712.63;;;14.69;56.51
23427;BME280;41148;45.420;10.952;2024-02-21T11:01:02;101707.09;;;14.73;56.57
23427;BME280;41148;45.420;10.952;2024-02-21T11:03:30;101694.53;;;14.75;56.13
23427;BME280;41148;45.420;10.952;2024-02-21T11:05:58;101696.25;;;14.78;56.03
23427;BME280;41148;45.420;10.952;2024-02-21T11:08:27;101681.03;;;14.78;56.87
23427;BME280;41148;45.420;10.952;2024-02-21T11:10:58;101675.63;;;14.80;56.81
23427;BME280;41148;45.420;10.952;2024-02-21T11:13:36;101670.06;;;14.86;57.55
23427;BME280;41148;45.420;10.952;2024-02-21T11:16:08;101672.72;;;14.86;57.33
23427;BME280;41148;45.420;10.952;2024-02-21T11:18:36;101658.22;;;14.93;57.57
23427;BME280;41148;45.420;10.952;2024-02-21T11:21:04;101648.41;;;14.92;57.33
23427;BME280;41148;45.420;10.952;2024-02-21T11:23:34;101650.03;;;14.98;57.96
23427;BME280;41148;45.420;10.952;2024-02-21T11:26:10;101635.78;;;14.96;58.06
23427;BME280;41148;45.420;10.952;2024-02-21T11:28:55;101650.03;;;14.98;57.06
23427;BME280;41148;45.420;10.952;2024-02-21T11:31:23;101637.19;;;14.79;57.93
23427;BME280;41148;45.420;10.952;2024-02-21T11:33:50;101640.41;;;14.91;58.78
23427;BME280;41148;45.420;10.952;2024-02-21T11:36:27;101626.84;;;14.95;58.87
23427;BME280;41148;45.420;10.952;2024-02-21T11:38:55;101623.16;;;14.99;58.37
23427;BME280;41148;45.420;10.952;2024-02-21T11:41:31;101617.63;;;15.04;58.89
23427;BME280;41148;45.420;10.952;2024-02-21T11:43:58;101630.03;;;15.08;59.38
23427;BME280;41148;45.420;10.952;2024-02-21T11:46:26;101631.91;;;15.06;59.29
23427;BME280;41148;45.420;10.952;2024-02-21T11:48:53;101630.09;;;15.06;59.57
23427;BME280;41148;45.420;10.952;2024-02-21T11:51:24;101615.63;;;15.10;60.39
23427;BME280;41148;45.420;10.952;2024-02-21T11:53:52;101617.25;;;15.16;60.67
23427;BME280;41148;45.420;10.952;2024-02-21T11:56:27;101605.06;;;15.06;61.12
23427;BME280;41148;45.420;10.952;2024-02-21T11:58:55;101588.16;;;15.02;61.57
23427;BME280;41148;45.420;10.952;2024-02-21T12:01:22;101598.22;;;14.96;62.99
23427;BME280;41148;45.420;10.952;2024-02-21T12:03:49;101588.41;;;14.95;63.09
23427;BME280;41148;45.420;10.952;2024-02-21T12:06:17;101588.38;;;14.96;62.61
23427;BME280;41148;45.420;10.952;2024-02-21T12:08:49;101593.53;;;15.02;62.75
23427;BME280;41148;45.420;10.952;2024-02-21T12:11:20;101586.47;;;15.00;63.62
23427;BME280;41148;45.420;10.952;2024-02-21T12:14:01;101580.75;;;15.10;62.64
23427;BME280;41148;45.420;10.952;2024-02-21T12:16:31;101580.75;;;15.10;62.26
23427;BME280;41148;45.420;10.952;2024-02-21T12:19:02;101570.31;;;15.01;62.84
23427;BME280;41148;45.420;10.952;2024-02-21T12:21:33;101574.56;;;15.08;63.15
23427;BME280;41148;45.420;10.952;2024-02-21T12:24:23;101559.34;;;15.09;63.25
23427;BME280;41148;45.420;10.952;2024-02-21T12:26:52;101551.41;;;15.06;63.60
23427;BME280;41148;45.420;10.952;2024-02-21T12:29:20;101544.16;;;15.08;63.55
23427;BME280;41148;45.420;10.952;2024-02-21T12:31:48;101535.53;;;15.25;62.78
23427;BME280;41148;45.420;10.952;2024-02-21T12:34:15;101535.75;;;15.18;62.96
23427;BME280;41148;45.420;10.952;2024-02-21T12:36:53;101530.72;;;15.34;63.23
23427;BME280;41148;45.420;10.952;2024-02-21T12:39:20;101528.09;;;15.33;62.92
23427;BME280;41148;45.420;10.952;2024-02-21T12:41:48;101530.53;;;15.14;62.71
23427;BME280;41148;45.420;10.952;2024-02-21T12:44:15;101528.06;;;15.08;64.04
23427;BME280;41148;45.420;10.952;2024-02-21T12:46:44;101522.59;;;15.11;63.63
23427;BME280;41148;45.420;10.952;2024-02-21T12:49:11;101524.03;;;15.21;63.10
23427;BME280;41148;45.420;10.952;2024-02-21T12:51:39;101513.22;;;15.23;63.11
23427;BME280;41148;45.420;10.952;2024-02-21T12:54:07;101504.53;;;15.16;61.71
23427;BME280;41148;45.420;10.952;2024-02-21T12:56:37;101505.09;;;15.26;61.16